Aérodrome :
LOGIN :

S'inscrire | Disclaimer

   EN    FR    IT 

 










Légende :    VFR   VFR Marginal   IFR   IFR Intensif   IFR Très Intensif
Visi : 
Plafond : 
>= 8 km
>= 3000ft
5 à 8 km
1000 à 3000 ft
1500m à 5 km
500 à 1000 ft
800 à 1500m
200 à 500 ft
< 800m
< 200 ft
Symboles :   Orages  Brouillard  Fortes neiges  Fortes précipitations  Vent > 20 kt
SIGMETs :   Divers  Orages  Givrage  Turbulence  Onde Orograph.  Cendres Volcan.







- Altitude de l'aérodrome : 408 ft
- Code IATA : FKB


EDSB - Karlsruhe Baden Baden

DERNIER METAR :
  • 160720Z 24003KT 210V270 2400 -FZDZ BR BKN003 OVC007 M01/M02 Q1013

METARs EXPIRÉS :
  • 160650Z 20004KT 3000 -FZDZ BR SCT003 OVC009 M02/M02 Q1012 REFZDZ
  • 160620Z 17003KT 2700 FZDZ BR FEW003 SCT005 OVC009 M02/M02 Q1013
  • 160550Z 00000KT 3300 -FZDZ FEW004 SCT006 OVC013 M02/M03 Q1013
  • 160520Z VRB02KT 3200 -SN FEW004 BKN012 OVC020 M02/M02 Q1013
  • 160450Z VRB02KT 3000 -SN FEW008 OVC013 M02/M03 Q1013

TAF TAF EDSB
Valide du 16 à 06h jusqu'au 17 à 06h UTC


160500Z 1606/1706 VRB03KT 6000 BKN015
TEMPO 1606/1608 0800 SN BKN008
PROB30
TEMPO 1606/1608 -FZDZ
BECMG 1608/1610 22005KT
PROB30
TEMPO 1608/1611 2000 -FZDZ BKN008
Pas de NOTAMs connus pour ce terrain.
4 SIGMETs publiés pour la FIR Langen (EDGG) :
 
Givrage fort
EDGG SIGMET 9 VALID 160730/161000 EDZF
EDGG LANGEN FIR SEV ICE FCST NE OF LINE N5215 E00715 - N4830 E00930 FL100/140 MOV NE 10KT NC=
Givrage fort avec pluie surfondue
EDGG SIGMET 8 VALID 160705/160900 EDZF
EDGG LANGEN FIR SEV ICE (FZRA) FCST W OF LINE N5215 E00730 - N4750 E00930 SFC/FL080 MOV E NC=
Annulation du SIGMET 6 
EDGG SIGMET 7 VALID 160704/160900 EDZF
EDGG LANGEN FIR CNL SIGMET 6 160700/160900=
SIGMET 6  ANNULÉ :
Givrage fort avec pluie surfondue
EDGG SIGMET 6 VALID 160700/160900 EDZF
EDGG LANGEN FIR SEV ICE (FZRA) FCST W OF LINE N5215 E00730 - N4750 E00930 TOP FL080 MOV E NC=



MET'MAP, la Météo Aéronautique d'un coup d'oeil ! - Copyright ORBIFLY Décembre 2007 - Disclaimer

ORBIFLY MET'MAP TEAM :

Programmation & Développement : Alexandra Zaïnal
Conception & Développement : Baudouin d'Aumeries
Co-Programmation & Développement : Marc-Olivier Méhu
Soutien technique & logistique : Manuel Goepfert

Contact : metmap@orbifly.com




SOURCES & CREDITS :

   NOAA